createdAt,value
2017-05-14T00:02:22.511Z,20.66
2017-05-14T00:04:50.881Z,19.42
2017-05-14T00:07:18.820Z,17.44
2017-05-14T00:09:47.119Z,19.30
2017-05-14T00:12:15.104Z,21.40
2017-05-14T00:14:43.035Z,17.62
2017-05-14T00:17:11.918Z,18.54
2017-05-14T00:19:40.274Z,18.66
2017-05-14T00:22:09.162Z,18.44
2017-05-14T00:24:37.473Z,19.70
2017-05-14T00:27:05.823Z,19.36
2017-05-14T00:29:33.755Z,20.00
2017-05-14T00:32:02.058Z,19.10
2017-05-14T00:34:30.411Z,20.06
2017-05-14T00:36:58.711Z,19.90
2017-05-14T00:39:27.379Z,19.20
2017-05-14T00:41:55.838Z,19.44
2017-05-14T00:44:24.742Z,20.02
2017-05-14T00:46:52.684Z,18.90
2017-05-14T00:49:20.714Z,21.30
2017-05-14T00:51:48.656Z,20.94
2017-05-14T00:54:16.962Z,21.32
2017-05-14T00:56:45.322Z,20.20
2017-05-14T00:59:13.990Z,20.66
2017-05-14T01:01:42.878Z,22.48
2017-05-14T01:04:11.242Z,20.32
2017-05-14T01:06:39.551Z,18.92
2017-05-14T01:09:07.501Z,19.80
2017-05-14T01:11:35.878Z,21.06
2017-05-14T01:14:04.174Z,21.48
2017-05-14T01:16:32.471Z,23.18
2017-05-14T01:19:02.671Z,21.84
2017-05-14T01:21:30.602Z,20.30
2017-05-14T01:23:58.908Z,21.00
2017-05-14T01:26:27.290Z,21.02
2017-05-14T01:28:56.331Z,19.60
2017-05-14T01:31:25.229Z,20.06
2017-05-14T01:33:53.992Z,20.66
2017-05-14T01:36:22.684Z,20.88
2017-05-14T01:38:51.016Z,23.60
2017-05-14T01:41:19.003Z,23.12
2017-05-14T01:43:47.886Z,24.46
2017-05-14T01:46:16.187Z,22.30
2017-05-14T01:48:44.534Z,19.72
2017-05-14T01:51:12.829Z,21.30
2017-05-14T01:53:41.502Z,21.74
2017-05-14T01:56:10.595Z,20.84
2017-05-14T01:58:38.913Z,20.14
2017-05-14T02:01:07.217Z,20.90
2017-05-14T02:03:36.159Z,23.60
2017-05-14T02:06:04.827Z,22.78
2017-05-14T02:08:33.127Z,21.38
2017-05-14T02:11:01.622Z,20.76
2017-05-14T02:13:29.559Z,23.66
2017-05-14T02:15:57.855Z,23.22
2017-05-14T02:18:26.947Z,20.36
2017-05-14T02:20:55.830Z,21.82
2017-05-14T02:23:24.735Z,22.56
2017-05-14T02:25:52.716Z,24.36
2017-05-14T02:28:21.039Z,24.58
2017-05-14T02:30:50.091Z,22.38
2017-05-14T02:33:18.458Z,21.88
2017-05-14T02:35:46.755Z,19.60
2017-05-14T02:38:15.795Z,22.02
2017-05-14T02:40:44.152Z,21.98
2017-05-14T02:43:12.454Z,22.74
2017-05-14T02:45:41.335Z,22.48
2017-05-14T02:48:10.354Z,24.34
2017-05-14T02:50:39.036Z,26.20
2017-05-14T02:53:07.336Z,24.66
2017-05-14T02:55:36.454Z,25.56
2017-05-14T02:58:04.391Z,26.44
2017-05-14T03:00:32.699Z,22.86
2017-05-14T03:03:01.422Z,25.82
2017-05-14T03:05:29.728Z,25.32
2017-05-14T03:07:58.614Z,25.26
2017-05-14T03:10:26.962Z,27.00
2017-05-14T03:12:55.275Z,25.72
2017-05-14T03:15:24.331Z,25.54
2017-05-14T03:17:52.715Z,24.52
2017-05-14T03:20:21.036Z,27.82
2017-05-14T03:22:49.363Z,28.76
2017-05-14T03:25:18.494Z,27.04
2017-05-14T03:27:46.431Z,28.80
2017-05-14T03:30:14.738Z,26.40
2017-05-14T03:32:43.882Z,25.62
2017-05-14T03:35:12.779Z,24.54
2017-05-14T03:37:41.446Z,25.08
2017-05-14T03:40:10.383Z,25.46
2017-05-14T03:42:38.344Z,23.74
2017-05-14T03:45:07.394Z,23.00
2017-05-14T03:47:36.331Z,21.54
2017-05-14T03:50:04.638Z,21.70
2017-05-14T03:52:32.939Z,20.96
2017-05-14T03:55:01.655Z,22.40
2017-05-14T03:57:29.584Z,22.94
2017-05-14T03:59:57.518Z,19.74
2017-05-14T04:02:25.870Z,20.76
2017-05-14T04:04:54.562Z,22.26
2017-05-14T04:07:22.886Z,20.38
2017-05-14T04:09:51.990Z,22.28
2017-05-14T04:12:19.950Z,23.20
2017-05-14T04:14:50.205Z,19.42
2017-05-14T04:17:18.674Z,21.56
2017-05-14T04:19:47.353Z,19.24
2017-05-14T04:22:16.402Z,18.88
2017-05-14T04:24:44.391Z,24.42
2017-05-14T04:27:12.328Z,20.84
2017-05-14T04:29:40.665Z,22.14
2017-05-14T04:32:08.650Z,20.42
2017-05-14T04:34:36.946Z,21.56
2017-05-14T04:37:05.623Z,21.66
2017-05-14T04:39:34.324Z,19.18
2017-05-14T04:42:02.622Z,20.14
2017-05-14T04:44:30.968Z,18.90
2017-05-14T04:46:59.311Z,22.06
2017-05-14T04:49:28.571Z,22.28
2017-05-14T04:51:57.455Z,22.54
2017-05-14T04:54:25.809Z,20.24
2017-05-14T04:56:54.124Z,20.64
2017-05-14T04:59:22.108Z,21.78
2017-05-14T05:01:51.086Z,20.84
2017-05-14T05:04:19.476Z,23.00
2017-05-14T05:06:47.795Z,22.68
2017-05-14T05:09:16.152Z,23.66
2017-05-14T05:11:44.460Z,21.76
2017-05-14T05:14:12.399Z,22.64
2017-05-14T05:16:40.766Z,25.32
2017-05-14T05:19:09.147Z,24.76
2017-05-14T05:21:37.107Z,22.94
2017-05-14T05:24:06.243Z,22.74
2017-05-14T05:26:34.562Z,24.80
2017-05-14T05:29:03.863Z,29.24
2017-05-14T05:31:32.218Z,28.36
2017-05-14T05:34:01.103Z,28.56
2017-05-14T05:36:29.407Z,32.22
2017-05-14T05:38:57.787Z,26.48
2017-05-14T05:41:25.731Z,21.20
2017-05-14T05:43:54.055Z,20.98
2017-05-14T05:46:22.064Z,26.06
2017-05-14T05:48:50.399Z,23.54
2017-05-14T05:51:18.578Z,20.74
2017-05-14T05:53:46.930Z,20.22
2017-05-14T05:56:15.234Z,19.76
2017-05-14T05:58:44.139Z,19.46
2017-05-14T06:01:13.098Z,24.08
2017-05-14T06:03:41.030Z,22.20
2017-05-14T06:06:09.341Z,22.78
2017-05-14T06:08:37.712Z,25.60
2017-05-14T06:11:06.022Z,23.48
2017-05-14T06:13:33.972Z,20.54
2017-05-14T06:16:02.922Z,25.12
2017-05-14T06:18:31.603Z,21.46
2017-05-14T06:20:59.530Z,24.62
2017-05-14T06:23:28.023Z,23.86
2017-05-14T06:25:56.928Z,21.84
2017-05-14T06:28:25.277Z,20.80
2017-05-14T06:30:54.050Z,21.16
2017-05-14T06:33:22.371Z,22.60
2017-05-14T06:35:51.234Z,22.16
2017-05-14T06:38:19.611Z,17.04
2017-05-14T06:40:48.683Z,18.02
2017-05-14T06:43:16.998Z,21.02
2017-05-14T06:45:44.986Z,15.36
2017-05-14T06:48:13.293Z,17.68
2017-05-14T06:50:41.591Z,14.84
2017-05-14T06:53:09.949Z,16.56
2017-05-14T06:55:37.907Z,15.28
2017-05-14T06:58:06.226Z,14.30
2017-05-14T07:00:34.607Z,14.96
2017-05-14T07:03:02.546Z,13.30
2017-05-14T07:05:30.863Z,13.50
2017-05-14T07:07:59.610Z,15.80
2017-05-14T07:10:28.664Z,14.44
2017-05-14T07:12:56.971Z,14.68
2017-05-14T07:15:26.010Z,13.50
2017-05-14T07:17:54.326Z,12.76
2017-05-14T07:20:22.291Z,12.06
2017-05-14T07:22:51.547Z,10.44
2017-05-14T07:25:20.620Z,12.18
2017-05-14T07:27:48.943Z,11.94
2017-05-14T07:30:17.898Z,10.30
2017-05-14T07:32:46.216Z,10.12
2017-05-14T07:35:14.583Z,9.20
2017-05-14T07:37:43.704Z,10.42
2017-05-14T07:40:12.003Z,9.06
2017-05-14T07:45:19.611Z,8.44
2017-05-14T07:47:47.570Z,9.12
2017-05-14T07:50:15.540Z,10.06
2017-05-14T07:52:43.903Z,8.70
2017-05-14T07:55:11.842Z,8.00
2017-05-14T07:57:39.791Z,6.34
2017-05-14T08:00:08.301Z,6.84
2017-05-14T08:02:36.970Z,6.32
2017-05-14T08:05:05.262Z,5.70
2017-05-14T08:07:34.202Z,5.40
2017-05-14T08:10:02.495Z,6.24
2017-05-14T08:12:30.791Z,6.38
2017-05-14T08:14:59.677Z,5.54
2017-05-14T08:17:27.615Z,6.10
2017-05-14T08:19:55.572Z,6.50
2017-05-14T08:22:24.526Z,6.76
2017-05-14T08:24:53.198Z,6.16
2017-05-14T08:27:22.110Z,6.28
2017-05-14T08:29:50.871Z,5.98
2017-05-14T08:32:18.808Z,6.00
2017-05-14T08:34:47.486Z,5.98
2017-05-14T08:37:15.731Z,7.04
2017-05-14T08:39:44.032Z,6.36
2017-05-14T08:42:11.959Z,5.72
2017-05-14T08:44:39.938Z,5.88
2017-05-14T08:47:08.250Z,6.04
2017-05-14T08:49:36.555Z,5.88
2017-05-14T08:52:04.563Z,6.62
2017-05-14T08:54:32.879Z,6.32
2017-05-14T08:57:01.185Z,6.02
2017-05-14T08:59:29.539Z,6.30
2017-05-14T09:01:58.204Z,5.38
2017-05-14T09:04:26.870Z,6.32
2017-05-14T09:06:55.273Z,6.42
2017-05-14T09:09:23.223Z,6.62
2017-05-14T09:11:52.300Z,6.56
2017-05-14T09:14:21.419Z,6.36
2017-05-14T09:16:49.377Z,6.44
2017-05-14T09:19:17.348Z,7.54
2017-05-14T09:21:45.703Z,5.50
2017-05-14T09:24:13.627Z,5.74
2017-05-14T09:26:42.663Z,5.06
2017-05-14T09:29:11.010Z,5.10
2017-05-14T09:31:39.325Z,5.16
2017-05-14T09:34:08.244Z,4.98
2017-05-14T09:36:36.967Z,5.64
2017-05-14T09:39:05.840Z,5.70
2017-05-14T09:41:34.713Z,4.66
2017-05-14T09:44:02.673Z,4.32
2017-05-14T09:46:31.713Z,3.26
2017-05-14T09:49:00.010Z,4.00
2017-05-14T09:51:28.370Z,4.08
2017-05-14T09:53:57.034Z,4.22
2017-05-14T09:56:25.323Z,3.94
2017-05-14T09:58:53.698Z,4.20
2017-05-14T10:01:21.621Z,4.00
2017-05-14T10:03:49.922Z,4.18
2017-05-14T10:06:17.903Z,5.06
2017-05-14T10:08:45.827Z,4.08
2017-05-14T10:11:14.863Z,4.32
2017-05-14T10:13:43.206Z,5.22
2017-05-14T10:16:12.085Z,7.10
2017-05-14T10:18:40.967Z,7.80
2017-05-14T10:21:08.943Z,6.42
2017-05-14T10:23:37.243Z,6.00
2017-05-14T10:26:05.948Z,7.76
2017-05-14T10:28:34.701Z,7.64
2017-05-14T10:31:03.019Z,6.56
2017-05-14T10:33:30.955Z,6.54
2017-05-14T10:35:59.655Z,6.38
2017-05-14T10:38:28.542Z,6.34
2017-05-14T10:40:57.204Z,6.58
2017-05-14T10:43:25.554Z,6.88
2017-05-14T10:45:53.479Z,6.46
2017-05-14T10:48:21.406Z,6.74
2017-05-14T10:50:50.632Z,5.14
2017-05-14T10:53:18.939Z,6.08
2017-05-14T10:55:47.815Z,3.30
2017-05-14T10:58:16.530Z,4.28
2017-05-14T11:00:44.828Z,3.50
2017-05-14T11:03:13.491Z,2.92
2017-05-14T11:05:42.582Z,2.76
2017-05-14T11:08:11.255Z,2.40
2017-05-14T11:10:40.376Z,2.40
2017-05-14T11:13:09.302Z,2.72
2017-05-14T11:15:37.970Z,2.14
2017-05-14T11:18:07.028Z,2.64
2017-05-14T11:20:37.997Z,2.32
2017-05-14T11:23:06.329Z,2.50
2017-05-14T11:25:35.377Z,2.08
2017-05-14T11:28:03.400Z,2.70
2017-05-14T11:30:31.337Z,2.58
2017-05-14T11:32:59.634Z,3.00
2017-05-14T11:35:28.766Z,3.36
2017-05-14T11:37:57.066Z,3.90
2017-05-14T11:40:25.950Z,3.60
2017-05-14T11:42:55.047Z,3.36
2017-05-14T11:45:22.983Z,3.30
2017-05-14T11:47:50.931Z,2.66
2017-05-14T11:50:19.874Z,3.16
2017-05-14T11:52:48.550Z,3.70
2017-05-14T11:55:17.591Z,3.28
2017-05-14T11:57:45.939Z,2.70
2017-05-14T12:00:14.978Z,2.30
2017-05-14T12:02:43.860Z,2.72
2017-05-14T12:05:12.828Z,2.16
2017-05-14T12:07:41.122Z,2.80
2017-05-14T12:10:09.998Z,2.60
2017-05-14T12:12:39.279Z,2.68
2017-05-14T12:15:08.337Z,2.44
2017-05-14T12:17:36.651Z,3.02
2017-05-14T12:20:05.008Z,3.22
2017-05-14T12:22:33.333Z,2.92
2017-05-14T12:25:02.596Z,2.50
2017-05-14T12:27:30.598Z,2.58
2017-05-14T12:30:00.763Z,2.40
2017-05-14T12:32:29.067Z,2.50
2017-05-14T12:34:57.410Z,2.74
2017-05-14T12:37:26.446Z,2.88
2017-05-14T12:39:54.747Z,2.36
2017-05-14T12:42:23.150Z,2.34
2017-05-14T12:44:51.463Z,2.70
2017-05-14T12:47:20.373Z,3.08
2017-05-14T12:49:49.427Z,2.36
2017-05-14T12:52:17.727Z,2.66
2017-05-14T12:54:46.026Z,2.34
2017-05-14T12:57:14.375Z,2.66
2017-05-14T12:59:42.674Z,2.58
2017-05-14T13:02:10.600Z,2.78
2017-05-14T13:04:39.406Z,1.98
2017-05-14T13:07:08.455Z,2.38
2017-05-14T13:09:36.780Z,1.82
2017-05-14T13:12:05.158Z,2.00
2017-05-14T13:14:33.507Z,2.10
2017-05-14T13:17:01.840Z,2.32
2017-05-14T13:19:30.548Z,2.04
2017-05-14T13:21:58.471Z,2.02
2017-05-14T13:24:27.346Z,2.22
2017-05-14T13:26:56.290Z,2.06
2017-05-14T13:29:24.954Z,2.46
2017-05-14T13:31:53.250Z,1.46
2017-05-14T13:34:21.239Z,2.48
2017-05-14T13:36:49.182Z,2.08
2017-05-14T13:39:17.486Z,2.08
2017-05-14T13:41:46.282Z,2.00
2017-05-14T13:44:15.165Z,2.10
2017-05-14T13:46:44.206Z,1.84
2017-05-14T13:49:12.807Z,1.80
2017-05-14T13:51:41.839Z,2.08
2017-05-14T13:54:10.134Z,1.90
2017-05-14T13:56:38.542Z,1.42
2017-05-14T13:59:07.206Z,2.16
2017-05-14T14:01:35.526Z,2.24
2017-05-14T14:04:04.267Z,2.20
2017-05-14T14:06:32.559Z,2.12
2017-05-14T14:09:00.483Z,1.80
2017-05-14T14:11:28.830Z,1.90
2017-05-14T14:13:56.754Z,2.20
2017-05-14T14:16:25.787Z,1.96
2017-05-14T14:18:54.498Z,1.96
2017-05-14T14:21:23.370Z,2.06
2017-05-14T14:23:52.449Z,2.38
2017-05-14T14:26:21.390Z,2.98
2017-05-14T14:28:50.062Z,2.74
2017-05-14T14:31:18.377Z,2.70
2017-05-14T14:33:46.779Z,2.80
2017-05-14T14:36:14.736Z,2.72
2017-05-14T14:38:43.035Z,1.90
2017-05-14T14:41:11.384Z,2.58
2017-05-14T14:43:39.315Z,2.68
2017-05-14T14:46:07.619Z,2.06
2017-05-14T14:48:36.345Z,1.94
2017-05-14T14:51:04.660Z,1.88
2017-05-14T14:53:32.606Z,2.00
2017-05-14T14:56:00.619Z,2.58
2017-05-14T14:58:29.282Z,1.92
2017-05-14T15:00:57.676Z,2.30
2017-05-14T15:03:26.037Z,2.20
2017-05-14T15:05:54.322Z,1.94
2017-05-14T15:08:22.246Z,1.70
2017-05-14T15:10:50.606Z,2.56
2017-05-14T15:13:18.919Z,1.82
2017-05-14T15:15:47.802Z,2.06
2017-05-14T15:18:15.850Z,1.94
2017-05-14T15:20:43.782Z,1.80
2017-05-14T15:23:12.662Z,2.32
2017-05-14T15:25:41.383Z,2.54
2017-05-14T15:28:10.280Z,1.82
2017-05-14T15:30:38.938Z,2.80
2017-05-14T15:33:07.282Z,2.30
2017-05-14T15:35:35.602Z,2.90
2017-05-14T15:38:04.662Z,2.28
2017-05-14T15:40:32.687Z,1.96
2017-05-14T15:43:00.982Z,1.40
2017-05-14T15:45:29.275Z,1.56
2017-05-14T15:47:58.379Z,1.30
2017-05-14T15:50:27.255Z,1.36
2017-05-14T15:52:56.131Z,1.30
2017-05-14T15:55:24.436Z,1.52
2017-05-14T15:57:52.363Z,1.36
2017-05-14T16:00:20.670Z,0.96
2017-05-14T16:02:50.067Z,1.52
2017-05-14T16:05:18.006Z,2.10
2017-05-14T16:10:06.330Z,1.32
2017-05-14T16:12:34.643Z,1.70
2017-05-14T16:15:03.561Z,116.48
2017-05-14T16:17:32.278Z,1.72
2017-05-14T16:20:00.567Z,1.80
2017-05-14T16:22:28.495Z,1.36
2017-05-14T16:24:56.846Z,1.30
2017-05-14T16:27:25.139Z,1.12
2017-05-14T16:29:53.439Z,1.26
2017-05-14T16:32:21.791Z,1.06
2017-05-14T16:34:49.735Z,1.08
2017-05-14T16:37:18.063Z,0.90
2017-05-14T16:39:46.510Z,1.18
2017-05-14T16:42:14.438Z,1.00
2017-05-14T16:44:42.737Z,0.96
2017-05-14T16:47:11.086Z,1.10
2017-05-14T16:49:39.754Z,1.20
2017-05-14T16:52:08.638Z,1.20
2017-05-14T16:57:10.753Z,1.20
2017-05-14T16:59:39.055Z,1.20
2017-05-14T17:02:07.354Z,0.96
2017-05-14T17:04:35.999Z,1.02
2017-05-14T17:07:04.890Z,1.42
2017-05-14T17:09:32.814Z,1.20
2017-05-14T17:12:01.862Z,1.40
2017-05-14T17:14:30.166Z,1.32
2017-05-14T17:16:59.039Z,1.00
2017-05-14T17:19:28.126Z,1.10
2017-05-14T17:21:56.047Z,1.56
2017-05-14T17:24:24.921Z,1.60
2017-05-14T17:26:53.637Z,1.76
2017-05-14T17:29:21.554Z,1.38
2017-05-14T17:31:49.863Z,1.38
2017-05-14T17:34:18.598Z,1.90
2017-05-14T17:36:47.503Z,1.76
2017-05-14T17:39:16.195Z,1.46
2017-05-14T17:41:44.191Z,1.40
2017-05-14T17:44:13.222Z,1.50
2017-05-14T17:46:41.515Z,1.98
2017-05-14T17:49:09.854Z,1.18
2017-05-14T17:51:38.722Z,1.60
2017-05-14T17:54:07.010Z,2.04
2017-05-14T17:56:35.348Z,1.58
2017-05-14T17:59:04.391Z,1.86
2017-05-14T18:01:33.283Z,1.90
2017-05-14T18:04:01.270Z,1.50
2017-05-14T18:06:29.194Z,1.68
2017-05-14T18:08:58.070Z,1.62
2017-05-14T18:11:27.154Z,1.78
2017-05-14T18:13:55.602Z,1.78
2017-05-14T18:16:23.894Z,2.04
2017-05-14T18:18:54.139Z,1.88
2017-05-14T18:21:22.063Z,1.74
2017-05-14T18:23:50.014Z,1.62
2017-05-14T18:26:18.383Z,1.66
2017-05-14T18:28:46.333Z,2.14
2017-05-14T18:31:14.626Z,2.12
2017-05-14T18:33:42.991Z,2.00
2017-05-14T18:36:10.918Z,2.48
2017-05-14T18:38:38.842Z,2.84
2017-05-14T18:41:07.563Z,4.66
2017-05-14T18:43:36.443Z,4.18
2017-05-14T18:46:05.123Z,4.82
2017-05-14T18:48:33.139Z,4.42
2017-05-14T18:51:01.810Z,4.16
2017-05-14T18:53:30.107Z,4.48
2017-05-14T18:55:59.038Z,4.12
2017-05-14T18:58:27.698Z,4.40
2017-05-14T19:00:56.366Z,4.70
2017-05-14T19:03:25.074Z,4.64
2017-05-14T19:05:54.107Z,5.10
2017-05-14T19:08:22.402Z,5.86
2017-05-14T19:10:50.387Z,5.86
2017-05-14T19:13:18.711Z,5.74
2017-05-14T19:15:46.652Z,7.02
2017-05-14T19:18:15.019Z,5.82
2017-05-14T19:20:43.318Z,5.96
2017-05-14T19:23:12.193Z,5.40
2017-05-14T19:25:40.896Z,4.64
2017-05-14T19:28:09.191Z,5.26
2017-05-14T19:30:38.223Z,4.30
2017-05-14T19:33:07.343Z,3.98
2017-05-14T19:35:36.273Z,4.42
2017-05-14T19:38:05.320Z,4.34
2017-05-14T19:40:33.671Z,3.98
2017-05-14T19:43:02.339Z,3.94
2017-05-14T19:45:31.006Z,3.60
2017-05-14T19:48:00.015Z,3.28
2017-05-14T19:50:27.939Z,3.94
2017-05-14T19:52:56.239Z,3.28
2017-05-14T19:55:25.335Z,3.22
2017-05-14T19:57:54.238Z,3.02
2017-05-14T20:00:23.115Z,2.68
2017-05-14T20:05:27.175Z,3.40
2017-05-14T20:07:55.838Z,3.12
2017-05-14T20:10:23.766Z,3.24
2017-05-14T20:12:52.100Z,2.52
2017-05-14T20:15:21.138Z,2.82
2017-05-14T20:17:50.034Z,2.42
2017-05-14T20:20:18.975Z,2.64
2017-05-14T20:22:47.657Z,2.34
2017-05-14T20:25:15.591Z,3.02
2017-05-14T20:27:43.586Z,2.70
2017-05-14T20:30:11.522Z,2.34
2017-05-14T20:32:41.311Z,2.42
2017-05-14T20:35:10.118Z,2.42
2017-05-14T20:37:38.415Z,2.22
2017-05-14T20:40:06.715Z,2.46
2017-05-14T20:42:35.669Z,2.88
2017-05-14T20:45:04.558Z,2.26
2017-05-14T20:47:32.495Z,2.20
2017-05-14T20:50:01.422Z,2.34
2017-05-14T20:52:29.715Z,2.30
2017-05-14T20:54:58.010Z,2.62
2017-05-14T20:57:27.094Z,2.06
2017-05-14T20:59:55.024Z,2.04
2017-05-14T21:02:23.687Z,2.30
2017-05-14T21:04:52.642Z,2.40
2017-05-14T21:07:21.528Z,2.54
2017-05-14T21:09:50.204Z,2.10
2017-05-14T21:12:18.598Z,2.42
2017-05-14T21:14:47.500Z,2.30
2017-05-14T21:17:16.197Z,1.94
2017-05-14T21:19:44.601Z,1.94
2017-05-14T21:22:13.271Z,2.16
2017-05-14T21:24:42.154Z,2.44
2017-05-14T21:27:10.511Z,1.98
2017-05-14T21:29:38.436Z,1.78
2017-05-14T21:32:07.478Z,2.28
2017-05-14T21:34:35.831Z,2.12
2017-05-14T21:37:03.783Z,2.10
2017-05-14T21:39:32.819Z,2.46
2017-05-14T21:42:01.519Z,1.90
2017-05-14T21:44:29.811Z,2.62
2017-05-14T21:46:58.127Z,1.88
2017-05-14T21:49:26.490Z,2.28
2017-05-14T21:51:55.375Z,1.70
2017-05-14T21:54:23.670Z,2.52
2017-05-14T21:56:52.306Z,2.14
2017-05-14T21:59:20.619Z,2.10
2017-05-14T22:01:54.534Z,2.08
2017-05-14T22:04:22.830Z,2.10
2017-05-14T22:06:51.878Z,1.94
2017-05-14T22:09:20.228Z,2.38
2017-05-14T22:11:48.188Z,2.48
2017-05-14T22:14:16.538Z,2.18
2017-05-14T22:16:44.523Z,2.16
2017-05-14T22:19:12.824Z,2.32
2017-05-14T22:21:40.756Z,1.98
2017-05-14T22:24:09.100Z,2.02
2017-05-14T22:26:37.763Z,2.10
2017-05-14T22:29:06.062Z,2.12
2017-05-14T22:31:34.415Z,2.36
2017-05-14T22:34:03.080Z,2.62
2017-05-14T22:36:32.122Z,2.26
2017-05-14T22:39:00.840Z,2.32
2017-05-14T22:41:29.879Z,2.90
2017-05-14T22:43:57.802Z,2.14
2017-05-14T22:46:26.524Z,2.00
2017-05-14T22:48:54.814Z,1.96
2017-05-14T22:51:23.694Z,2.50
2017-05-14T22:53:52.410Z,2.22
2017-05-14T22:56:21.467Z,2.96
2017-05-14T22:58:49.782Z,2.56
2017-05-14T23:01:18.526Z,2.48
2017-05-14T23:03:46.860Z,2.58
2017-05-14T23:06:14.793Z,2.30
2017-05-14T23:08:42.775Z,2.44
2017-05-14T23:11:11.071Z,2.96
2017-05-14T23:13:39.364Z,2.26
2017-05-14T23:16:07.339Z,2.54
2017-05-14T23:18:35.643Z,2.10
2017-05-14T23:21:04.332Z,2.48
2017-05-14T23:23:33.195Z,2.58
2017-05-14T23:26:02.239Z,2.92
2017-05-14T23:28:30.538Z,2.98
2017-05-14T23:31:00.355Z,3.30
2017-05-14T23:33:29.019Z,3.18
2017-05-14T23:35:56.942Z,2.96
2017-05-14T23:38:25.285Z,2.30
2017-05-14T23:40:54.328Z,3.06
2017-05-14T23:43:23.210Z,3.80
2017-05-14T23:45:52.134Z,3.10
2017-05-14T23:48:20.441Z,3.48
2017-05-14T23:50:49.331Z,2.64
2017-05-14T23:53:17.698Z,3.42
2017-05-14T23:55:46.012Z,3.60
2017-05-14T23:58:14.319Z,4.04
